createdAt,value
2022-12-03T00:00:35.426Z,17.08
2022-12-03T00:03:02.635Z,17.09
2022-12-03T00:05:29.813Z,17.08
2022-12-03T00:07:56.979Z,17.08
2022-12-03T00:10:24.158Z,17.05
2022-12-03T00:12:51.511Z,17.02
2022-12-03T00:15:19.625Z,17.04
2022-12-03T00:17:46.694Z,17.03
2022-12-03T00:20:13.824Z,17.00
2022-12-03T00:22:40.941Z,16.99
2022-12-03T00:25:08.003Z,16.97
2022-12-03T00:27:35.102Z,16.98
2022-12-03T00:30:02.247Z,16.98
2022-12-03T00:32:29.390Z,16.98
2022-12-03T00:40:18.167Z,16.89
2022-12-03T00:42:45.733Z,16.91
2022-12-03T00:45:22.685Z,16.92
2022-12-03T00:47:52.374Z,16.90
2022-12-03T00:50:19.441Z,16.90
2022-12-03T00:52:46.530Z,16.83
2022-12-03T00:55:13.608Z,16.81
2022-12-03T00:57:40.694Z,16.85
2022-12-03T01:00:07.750Z,16.82
2022-12-03T01:02:34.896Z,16.81
2022-12-03T01:05:02.167Z,16.84
2022-12-03T01:07:29.431Z,16.81
2022-12-03T01:09:56.492Z,16.84
2022-12-03T01:12:23.582Z,16.81
2022-12-03T01:14:50.816Z,16.84
2022-12-03T01:17:18.045Z,16.84
2022-12-03T01:19:48.401Z,16.82
2022-12-03T01:22:15.745Z,16.79
2022-12-03T01:24:42.848Z,16.72
2022-12-03T01:27:09.905Z,16.73
2022-12-03T01:29:36.972Z,16.74
2022-12-03T01:32:19.947Z,16.72
2022-12-03T01:34:47.197Z,16.74
2022-12-03T01:37:14.274Z,16.73
2022-12-03T01:39:41.338Z,16.76
2022-12-03T01:42:08.412Z,16.73
2022-12-03T01:44:35.533Z,16.72
2022-12-03T01:47:02.673Z,16.73
2022-12-03T01:49:30.026Z,16.70
2022-12-03T01:51:57.127Z,16.70
2022-12-03T01:54:24.193Z,16.70
2022-12-03T01:56:51.255Z,16.71
2022-12-03T01:59:18.315Z,16.68
2022-12-03T02:01:45.437Z,16.68
2022-12-03T02:04:12.576Z,16.69
2022-12-03T02:06:39.677Z,16.67
2022-12-03T02:09:08.607Z,16.67
2022-12-03T02:11:35.661Z,16.68
2022-12-03T02:14:02.717Z,16.66
2022-12-03T02:16:29.859Z,16.67
2022-12-03T02:18:57.030Z,16.66
2022-12-03T02:21:24.106Z,16.63
2022-12-03T02:23:51.349Z,16.65
2022-12-03T02:26:18.402Z,16.62
2022-12-03T02:28:45.481Z,16.58
2022-12-03T02:31:12.618Z,16.55
2022-12-03T02:33:39.703Z,16.53
2022-12-03T02:36:06.773Z,16.57
2022-12-03T02:38:33.873Z,16.56
2022-12-03T02:41:00.934Z,16.55
2022-12-03T02:43:28.007Z,16.54
2022-12-03T02:45:55.265Z,16.53
2022-12-03T02:48:22.330Z,16.48
2022-12-03T02:50:49.386Z,16.48
2022-12-03T02:53:16.441Z,16.54
2022-12-03T02:55:43.493Z,16.45
2022-12-03T02:58:10.568Z,16.47
2022-12-03T03:00:37.923Z,16.45
2022-12-03T03:03:05.095Z,16.42
2022-12-03T03:05:32.195Z,16.42
2022-12-03T03:07:59.365Z,16.42
2022-12-03T03:10:30.835Z,16.43
2022-12-03T03:12:58.396Z,16.40
2022-12-03T03:15:25.615Z,16.41
2022-12-03T03:17:52.696Z,16.41
2022-12-03T03:20:19.793Z,16.39
2022-12-03T03:22:46.848Z,16.40
2022-12-03T03:25:14.017Z,16.40
2022-12-03T03:27:41.155Z,16.36
2022-12-03T03:30:08.270Z,16.37
2022-12-03T03:32:35.346Z,16.37
2022-12-03T03:35:02.419Z,16.36
2022-12-03T03:37:29.506Z,16.35
2022-12-03T03:39:56.731Z,16.37
2022-12-03T03:42:23.843Z,16.35
2022-12-03T03:44:51.139Z,16.33
2022-12-03T03:47:18.466Z,16.35
2022-12-03T03:49:47.888Z,16.35
2022-12-03T03:52:14.992Z,16.35
2022-12-03T03:54:42.114Z,16.31
2022-12-03T03:57:09.223Z,16.25
2022-12-03T03:59:36.317Z,16.27
2022-12-03T04:02:03.496Z,16.27
2022-12-03T04:04:30.760Z,16.31
2022-12-03T04:06:57.951Z,16.29
2022-12-03T04:09:25.029Z,16.26
2022-12-03T04:12:10.956Z,16.26
2022-12-03T04:14:38.025Z,16.25
2022-12-03T04:17:05.095Z,16.21
2022-12-03T04:19:32.164Z,16.21
2022-12-03T04:22:18.271Z,16.21
2022-12-03T04:24:45.289Z,16.17
2022-12-03T04:27:31.208Z,16.16
2022-12-03T04:29:58.314Z,16.17
2022-12-03T04:32:43.933Z,16.19
2022-12-03T04:35:29.714Z,16.17
2022-12-03T04:37:56.833Z,16.19
2022-12-03T04:40:42.466Z,16.16
2022-12-03T04:43:09.793Z,16.17
2022-12-03T04:45:36.909Z,16.16
2022-12-03T04:48:04.046Z,16.16
2022-12-03T04:50:31.153Z,16.16
2022-12-03T04:52:58.214Z,16.06
2022-12-03T04:55:25.262Z,16.10
2022-12-03T04:57:52.322Z,16.07
2022-12-03T05:00:19.455Z,16.06
2022-12-03T05:02:46.599Z,16.06
2022-12-03T05:05:13.704Z,16.07
2022-12-03T05:07:40.786Z,16.04
2022-12-03T05:10:07.858Z,16.04
2022-12-03T05:12:34.933Z,15.99
2022-12-03T05:15:01.994Z,16.00
2022-12-03T05:17:29.156Z,15.99
2022-12-03T05:20:14.978Z,15.97
2022-12-03T05:22:42.049Z,15.94
2022-12-03T05:25:09.112Z,15.93
2022-12-03T05:27:36.193Z,15.91
2022-12-03T05:30:03.263Z,15.89
2022-12-03T05:32:30.366Z,15.88
2022-12-03T05:34:57.429Z,15.84
2022-12-03T05:37:24.481Z,15.83
2022-12-03T05:39:51.536Z,15.81
2022-12-03T05:42:37.394Z,15.82
2022-12-03T05:45:04.485Z,15.79
2022-12-03T05:47:31.542Z,15.78
2022-12-03T05:49:58.602Z,15.76
2022-12-03T05:52:25.708Z,15.75
2022-12-03T05:54:53.076Z,15.76
2022-12-03T05:57:20.299Z,15.74
2022-12-03T05:59:47.457Z,15.74
2022-12-03T06:02:14.580Z,15.74
2022-12-03T06:04:41.736Z,15.72
2022-12-03T06:07:13.794Z,15.71
2022-12-03T06:09:41.303Z,15.72
2022-12-03T06:12:11.165Z,15.68
2022-12-03T06:14:38.215Z,15.67
2022-12-03T06:17:05.304Z,15.66
2022-12-03T06:19:32.349Z,15.64
2022-12-03T06:21:59.457Z,15.65
2022-12-03T06:24:26.538Z,15.65
2022-12-03T06:26:53.637Z,15.63
2022-12-03T06:29:20.703Z,15.63
2022-12-03T06:31:47.786Z,15.61
2022-12-03T06:34:14.837Z,15.60
2022-12-03T06:36:41.909Z,15.59
2022-12-03T06:39:08.969Z,15.61
2022-12-03T06:41:36.087Z,15.57
2022-12-03T06:44:03.202Z,15.58
2022-12-03T06:46:30.324Z,15.55
2022-12-03T06:48:57.429Z,15.57
2022-12-03T06:51:24.504Z,15.56
2022-12-03T06:53:51.579Z,15.55
2022-12-03T06:56:22.076Z,15.54
2022-12-03T06:58:49.632Z,15.55
2022-12-03T07:01:16.722Z,15.54
2022-12-03T07:03:43.875Z,15.52
2022-12-03T07:06:10.928Z,15.50
2022-12-03T07:08:38.006Z,15.52
2022-12-03T07:11:05.064Z,15.47
2022-12-03T07:13:32.106Z,15.48
2022-12-03T07:15:59.213Z,15.47
2022-12-03T07:18:26.294Z,15.48
2022-12-03T07:20:53.438Z,15.48
2022-12-03T07:23:20.562Z,15.47
2022-12-03T07:25:47.658Z,15.47
2022-12-03T07:28:14.733Z,15.45
2022-12-03T07:30:41.790Z,15.45
2022-12-03T07:33:08.868Z,15.42
2022-12-03T07:35:35.922Z,15.44
2022-12-03T07:38:02.977Z,15.41
2022-12-03T07:40:30.225Z,15.41
2022-12-03T07:42:57.289Z,15.41
2022-12-03T07:45:24.343Z,15.39
2022-12-03T07:47:51.402Z,15.41
2022-12-03T07:50:18.514Z,15.40
2022-12-03T07:52:45.581Z,15.41
2022-12-03T07:55:13.348Z,15.39
2022-12-03T07:57:40.407Z,15.39
2022-12-03T08:00:07.480Z,15.37
2022-12-03T08:02:34.670Z,15.35
2022-12-03T08:05:01.789Z,15.35
2022-12-03T08:07:28.918Z,15.35
2022-12-03T08:09:56.026Z,15.35
2022-12-03T08:12:23.142Z,15.36
2022-12-03T08:14:50.261Z,15.34
2022-12-03T08:17:18.586Z,15.33
2022-12-03T08:19:45.646Z,15.35
2022-12-03T08:22:12.712Z,15.34
2022-12-03T08:24:39.817Z,15.35
2022-12-03T08:27:06.891Z,15.36
2022-12-03T08:29:33.963Z,15.35
2022-12-03T08:32:01.096Z,15.34
2022-12-03T08:34:28.247Z,15.36
2022-12-03T08:36:55.315Z,15.37
2022-12-03T08:39:22.394Z,15.37
2022-12-03T08:42:13.590Z,15.38
2022-12-03T08:44:44.168Z,15.37
2022-12-03T08:47:13.039Z,15.36
2022-12-03T08:49:40.342Z,15.34
2022-12-03T08:52:07.433Z,15.34
2022-12-03T08:54:34.546Z,15.35
2022-12-03T08:57:01.599Z,15.34
2022-12-03T08:59:28.705Z,15.35
2022-12-03T09:01:55.761Z,15.34
2022-12-03T09:04:23.038Z,15.39
2022-12-03T09:06:50.151Z,15.39
2022-12-03T09:09:17.213Z,15.40
2022-12-03T09:11:44.378Z,15.41
2022-12-03T09:14:15.235Z,15.43
2022-12-03T09:16:45.348Z,15.40
2022-12-03T09:19:12.458Z,15.43
2022-12-03T09:21:39.538Z,15.44
2022-12-03T09:24:06.638Z,15.47
2022-12-03T09:26:33.701Z,15.44
2022-12-03T09:29:00.768Z,15.47
2022-12-03T09:31:27.934Z,15.48
2022-12-03T09:33:55.017Z,15.48
2022-12-03T09:36:22.099Z,15.46
2022-12-03T09:38:49.239Z,15.50
2022-12-03T09:41:16.294Z,15.49
2022-12-03T09:44:03.447Z,15.51
2022-12-03T09:46:30.508Z,15.49
2022-12-03T09:48:57.653Z,15.48
2022-12-03T09:51:24.705Z,15.55
2022-12-03T09:53:51.944Z,15.54
2022-12-03T09:56:19.268Z,15.57
2022-12-03T09:58:46.374Z,15.61
2022-12-03T10:01:13.586Z,15.59
2022-12-03T10:03:41.058Z,15.62
2022-12-03T10:06:08.208Z,15.62
2022-12-03T10:08:35.355Z,15.57
2022-12-03T10:11:02.422Z,15.71
2022-12-03T10:13:29.488Z,15.78
2022-12-03T10:15:56.582Z,15.76
2022-12-03T10:18:23.683Z,15.80
2022-12-03T10:20:50.775Z,15.83
2022-12-03T10:23:17.844Z,15.82
2022-12-03T10:25:44.899Z,15.85
2022-12-03T10:28:12.000Z,15.84
2022-12-03T10:30:39.179Z,15.88
2022-12-03T10:33:06.250Z,15.94
2022-12-03T10:35:33.321Z,15.94
2022-12-03T10:38:00.395Z,16.04
2022-12-03T10:40:27.565Z,16.00
2022-12-03T10:42:54.672Z,15.81
2022-12-03T10:45:22.626Z,15.79
2022-12-03T10:47:49.810Z,15.82
2022-12-03T10:50:16.960Z,15.81
2022-12-03T10:52:44.094Z,15.78
2022-12-03T10:55:11.195Z,15.78
2022-12-03T10:57:43.737Z,15.83
2022-12-03T11:00:12.541Z,15.75
2022-12-03T11:02:39.618Z,15.81
2022-12-03T11:05:06.716Z,15.85
2022-12-03T11:07:33.796Z,15.93
2022-12-03T11:10:02.676Z,15.91
2022-12-03T11:12:34.663Z,15.91
2022-12-03T11:15:06.453Z,15.90
2022-12-03T11:17:33.557Z,15.90
2022-12-03T11:20:00.613Z,15.92
2022-12-03T11:22:27.740Z,15.93
2022-12-03T11:24:55.179Z,15.97
2022-12-03T11:27:22.527Z,15.90
2022-12-03T11:29:49.677Z,15.93
2022-12-03T11:32:16.783Z,15.96
2022-12-03T11:34:44.125Z,15.97
2022-12-03T11:37:11.310Z,15.95
2022-12-03T11:39:38.382Z,15.94
2022-12-03T11:42:05.463Z,15.92
2022-12-03T11:44:32.668Z,15.91
2022-12-03T11:46:59.994Z,15.92
2022-12-03T11:49:27.164Z,15.95
2022-12-03T11:51:54.253Z,15.96
2022-12-03T11:54:21.319Z,15.94
2022-12-03T11:56:49.481Z,15.97
2022-12-03T11:59:16.879Z,15.88
2022-12-03T12:01:43.945Z,15.93
2022-12-03T12:04:11.051Z,15.98
2022-12-03T12:06:38.160Z,16.01
2022-12-03T12:09:05.215Z,16.01
2022-12-03T12:11:32.335Z,15.99
2022-12-03T12:13:59.499Z,16.01
2022-12-03T12:16:26.608Z,16.01
2022-12-03T12:18:55.387Z,16.00
2022-12-03T12:21:22.889Z,15.96
2022-12-03T12:23:49.958Z,16.05
2022-12-03T12:26:17.013Z,16.06
2022-12-03T12:28:44.132Z,15.93
2022-12-03T12:31:11.594Z,16.00
2022-12-03T12:33:38.748Z,16.03
2022-12-03T12:36:05.909Z,16.02
2022-12-03T12:38:32.969Z,16.03
2022-12-03T12:41:00.031Z,16.02
2022-12-03T12:43:27.114Z,16.01
2022-12-03T12:45:54.577Z,15.92
2022-12-03T12:48:21.998Z,15.99
2022-12-03T12:50:49.142Z,16.02
2022-12-03T12:53:16.208Z,16.01
2022-12-03T12:55:43.543Z,15.95
2022-12-03T12:58:10.618Z,16.08
2022-12-03T13:00:37.725Z,16.03
2022-12-03T13:03:04.856Z,16.13
2022-12-03T13:05:31.937Z,16.03
2022-12-03T13:07:59.043Z,15.97
2022-12-03T13:10:26.238Z,16.00
2022-12-03T13:12:53.313Z,16.00
2022-12-03T13:15:20.389Z,15.88
2022-12-03T13:17:53.874Z,15.97
2022-12-03T13:20:20.940Z,15.99
2022-12-03T13:22:54.885Z,16.00
2022-12-03T13:25:44.033Z,15.97
2022-12-03T13:28:15.941Z,16.00
2022-12-03T13:30:44.064Z,16.02
2022-12-03T13:33:11.634Z,16.01
2022-12-03T13:35:39.906Z,16.02
2022-12-03T13:38:07.007Z,16.01
2022-12-03T13:40:37.169Z,16.01
2022-12-03T13:43:04.384Z,16.02
2022-12-03T13:45:31.487Z,16.03
2022-12-03T13:47:58.584Z,15.99
2022-12-03T13:50:25.643Z,15.96
2022-12-03T13:52:53.147Z,15.95
2022-12-03T13:55:20.207Z,16.00
2022-12-03T13:57:47.250Z,16.01
2022-12-03T14:00:14.312Z,15.99
2022-12-03T14:02:41.447Z,16.01
2022-12-03T14:05:08.547Z,15.99
2022-12-03T14:07:35.630Z,15.99
2022-12-03T14:10:02.718Z,15.99
2022-12-03T14:12:33.831Z,16.03
2022-12-03T14:15:01.146Z,16.00
2022-12-03T14:17:28.313Z,15.99
2022-12-03T14:19:55.569Z,15.99
2022-12-03T14:22:25.169Z,15.88
2022-12-03T14:24:52.226Z,15.87
2022-12-03T14:27:19.374Z,15.99
2022-12-03T14:29:46.446Z,16.03
2022-12-03T14:32:13.591Z,16.05
2022-12-03T14:34:40.755Z,16.02
2022-12-03T14:37:07.943Z,16.02
2022-12-03T14:39:35.080Z,16.02
2022-12-03T14:42:14.500Z,16.03
2022-12-03T14:44:41.718Z,16.00
2022-12-03T14:47:08.801Z,16.00
2022-12-03T14:49:35.910Z,16.02
2022-12-03T14:52:02.960Z,16.02
2022-12-03T14:54:30.278Z,15.98
2022-12-03T14:56:57.395Z,16.01
2022-12-03T14:59:27.614Z,15.99
2022-12-03T15:01:55.438Z,15.99
2022-12-03T15:04:22.717Z,16.01
2022-12-03T15:06:49.814Z,16.00
2022-12-03T15:09:16.906Z,15.97
2022-12-03T15:11:46.334Z,15.93
2022-12-03T15:14:13.792Z,15.99
2022-12-03T15:16:40.907Z,15.95
2022-12-03T15:19:08.046Z,15.99
2022-12-03T15:21:35.191Z,15.96
2022-12-03T15:24:02.346Z,15.93
2022-12-03T15:26:29.586Z,15.95
2022-12-03T15:28:56.668Z,15.98
2022-12-03T15:31:23.921Z,15.97
2022-12-03T15:33:51.001Z,15.97
2022-12-03T15:36:18.067Z,15.98
2022-12-03T15:38:45.165Z,15.99
2022-12-03T15:41:21.797Z,15.95
2022-12-03T15:43:48.846Z,15.93
2022-12-03T15:46:15.950Z,16.01
2022-12-03T15:48:43.072Z,16.01
2022-12-03T15:51:10.139Z,15.97
2022-12-03T15:53:38.037Z,15.92
2022-12-03T15:56:05.092Z,15.98
2022-12-03T15:58:32.143Z,15.93
2022-12-03T16:00:59.203Z,15.93
2022-12-03T16:03:26.360Z,15.91
2022-12-03T16:05:53.462Z,15.92
2022-12-03T16:08:20.553Z,15.91
2022-12-03T16:10:47.714Z,15.87
2022-12-03T16:13:14.791Z,15.88
2022-12-03T16:15:41.924Z,15.89
2022-12-03T16:18:09.276Z,15.91
2022-12-03T16:20:36.356Z,15.90
2022-12-03T16:23:03.455Z,15.89
2022-12-03T16:25:30.537Z,15.80
2022-12-03T16:27:57.696Z,15.87
2022-12-03T16:30:24.826Z,15.87
2022-12-03T16:32:51.943Z,15.84
2022-12-03T16:35:19.044Z,15.86
2022-12-03T16:37:46.109Z,15.84
2022-12-03T16:40:13.206Z,15.86
2022-12-03T16:42:40.782Z,15.88
2022-12-03T16:45:10.688Z,15.86
2022-12-03T16:47:37.740Z,15.86
2022-12-03T16:50:04.879Z,15.83
2022-12-03T16:52:31.953Z,15.84
2022-12-03T16:54:59.067Z,15.85
2022-12-03T16:57:30.364Z,15.84
2022-12-03T17:00:00.734Z,15.82
2022-12-03T17:02:28.117Z,15.82
2022-12-03T17:04:55.389Z,15.76
2022-12-03T17:07:22.461Z,15.81
2022-12-03T17:09:49.578Z,15.77
2022-12-03T17:12:16.632Z,15.78
2022-12-03T17:14:43.709Z,15.79
2022-12-03T17:17:10.801Z,15.78
2022-12-03T17:19:37.882Z,15.73
2022-12-03T17:22:04.949Z,15.72
2022-12-03T17:24:32.005Z,15.73
2022-12-03T17:26:59.324Z,15.78
2022-12-03T17:29:26.518Z,15.77
2022-12-03T17:31:53.607Z,15.76
2022-12-03T17:34:20.747Z,15.76
2022-12-03T17:36:47.817Z,15.71
2022-12-03T17:39:14.876Z,15.74
2022-12-03T17:41:41.997Z,15.73
2022-12-03T17:44:12.127Z,15.70
2022-12-03T17:46:41.150Z,15.73
2022-12-03T17:49:08.291Z,15.73
2022-12-03T17:51:35.436Z,15.76
2022-12-03T17:54:02.597Z,15.77
2022-12-03T17:56:29.689Z,15.74
2022-12-03T17:58:57.178Z,15.73
2022-12-03T18:01:24.333Z,15.77
2022-12-03T18:03:51.510Z,15.74
2022-12-03T18:06:18.615Z,15.74
2022-12-03T18:08:45.706Z,15.74
2022-12-03T18:11:12.818Z,15.69
2022-12-03T18:13:39.929Z,15.73
2022-12-03T18:16:07.053Z,15.75
2022-12-03T18:18:34.167Z,15.74
2022-12-03T18:21:02.230Z,15.72
2022-12-03T18:23:29.380Z,15.73
2022-12-03T18:25:56.435Z,15.71
2022-12-03T18:28:23.492Z,15.71
2022-12-03T18:30:52.832Z,15.74
2022-12-03T18:33:21.269Z,15.72
2022-12-03T18:35:48.411Z,15.71
2022-12-03T18:38:15.546Z,15.71
2022-12-03T18:40:42.629Z,15.69
2022-12-03T18:43:09.698Z,15.68
2022-12-03T18:45:36.762Z,15.70
2022-12-03T18:48:03.939Z,15.67
2022-12-03T18:50:31.093Z,15.70
2022-12-03T18:52:58.143Z,15.70
2022-12-03T18:55:25.190Z,15.72
2022-12-03T18:57:52.316Z,15.70
2022-12-03T19:00:19.386Z,15.68
2022-12-03T19:03:02.571Z,15.68
2022-12-03T19:05:30.598Z,15.68
2022-12-03T19:07:57.708Z,15.64
2022-12-03T19:10:24.825Z,15.66
2022-12-03T19:12:51.908Z,15.64
2022-12-03T19:15:19.022Z,15.62
2022-12-03T19:17:46.090Z,15.61
2022-12-03T19:20:13.141Z,15.63
2022-12-03T19:22:40.226Z,15.64
2022-12-03T19:25:07.291Z,15.65
2022-12-03T19:27:34.488Z,15.64
2022-12-03T19:30:01.552Z,15.71
2022-12-03T19:32:28.629Z,15.70
2022-12-03T19:34:55.758Z,15.68
2022-12-03T19:37:22.817Z,15.63
2022-12-03T19:39:49.899Z,15.60
2022-12-03T19:42:17.364Z,15.62
2022-12-03T19:44:44.431Z,15.61
2022-12-03T19:47:11.507Z,15.66
2022-12-03T19:49:38.608Z,15.65
2022-12-03T19:52:05.680Z,15.66
2022-12-03T19:54:32.887Z,15.66
2022-12-03T19:57:00.055Z,15.63
2022-12-03T19:59:27.117Z,15.64
2022-12-03T20:01:54.307Z,15.66
2022-12-03T20:04:21.489Z,15.65
2022-12-03T20:06:48.581Z,15.71
2022-12-03T20:09:18.045Z,15.70
2022-12-03T20:11:45.928Z,15.70
2022-12-03T20:14:13.152Z,15.71
2022-12-03T20:16:40.266Z,15.71
2022-12-03T20:19:07.405Z,15.74
2022-12-03T20:21:34.540Z,15.77
2022-12-03T20:24:01.631Z,15.78
2022-12-03T20:26:28.726Z,15.78
2022-12-03T20:28:58.315Z,15.75
2022-12-03T20:31:25.464Z,15.77
2022-12-03T20:33:52.554Z,15.77
2022-12-03T20:36:20.664Z,15.74
2022-12-03T20:38:48.175Z,15.75
2022-12-03T20:41:15.271Z,15.73
2022-12-03T20:43:42.423Z,15.69
2022-12-03T20:46:09.549Z,15.73
2022-12-03T20:48:36.678Z,15.71
2022-12-03T20:51:03.863Z,15.68
2022-12-03T20:53:31.122Z,15.72
2022-12-03T20:55:58.235Z,15.69
2022-12-03T20:58:25.362Z,15.69
2022-12-03T21:00:52.492Z,15.67
2022-12-03T21:03:19.635Z,15.69
2022-12-03T21:05:47.585Z,15.70
2022-12-03T21:08:14.720Z,15.72
2022-12-03T21:10:45.151Z,15.72
2022-12-03T21:13:12.230Z,15.74
2022-12-03T21:15:39.334Z,15.76
2022-12-03T21:18:06.429Z,15.79
2022-12-03T21:20:33.537Z,15.82
2022-12-03T21:23:00.625Z,15.88
2022-12-03T21:25:27.684Z,15.92
2022-12-03T21:27:56.155Z,15.88
2022-12-03T21:30:23.442Z,15.96
2022-12-03T21:32:50.642Z,15.81
2022-12-03T21:35:18.583Z,15.97
2022-12-03T21:37:45.654Z,16.04
2022-12-03T21:40:12.769Z,16.05
2022-12-03T21:42:39.828Z,16.07
2022-12-03T21:45:07.409Z,16.06
2022-12-03T21:47:37.196Z,16.06
2022-12-03T21:50:04.882Z,16.15
2022-12-03T21:52:32.108Z,16.18
2022-12-03T21:54:59.209Z,16.17
2022-12-03T21:57:26.306Z,16.18
2022-12-03T21:59:53.768Z,16.18
2022-12-03T22:02:21.125Z,16.20
2022-12-03T22:04:48.214Z,16.21
2022-12-03T22:07:15.273Z,16.24
2022-12-03T22:09:42.352Z,16.19
2022-12-03T22:12:09.411Z,16.14
2022-12-03T22:14:36.537Z,16.18
2022-12-03T22:17:03.606Z,16.18
2022-12-03T22:19:30.689Z,16.20
2022-12-03T22:21:57.797Z,16.19
2022-12-03T22:24:24.942Z,16.10
2022-12-03T22:26:54.643Z,16.06
2022-12-03T22:29:21.810Z,15.99
2022-12-03T22:31:48.890Z,16.02
2022-12-03T22:34:15.946Z,16.05
2022-12-03T22:36:43.032Z,16.16
2022-12-03T22:39:10.097Z,16.16
2022-12-03T22:41:37.171Z,16.16
2022-12-03T22:44:04.301Z,16.13
2022-12-03T22:46:31.372Z,16.11
2022-12-03T22:49:03.307Z,16.02
2022-12-03T22:51:33.711Z,16.00
2022-12-03T22:54:01.079Z,16.06
2022-12-03T22:56:28.559Z,16.03
2022-12-03T22:58:55.620Z,16.04
2022-12-03T23:01:22.702Z,16.02
2022-12-03T23:03:49.995Z,15.98
2022-12-03T23:06:17.218Z,15.91
2022-12-03T23:08:44.281Z,15.91
2022-12-03T23:11:11.349Z,15.98
2022-12-03T23:13:38.420Z,15.93
2022-12-03T23:16:05.570Z,15.91
2022-12-03T23:18:32.752Z,15.91
2022-12-03T23:20:59.798Z,15.88
2022-12-03T23:23:26.843Z,15.85
2022-12-03T23:25:53.898Z,15.87
2022-12-03T23:28:21.224Z,15.87
2022-12-03T23:30:48.336Z,15.87
2022-12-03T23:33:16.701Z,15.81
2022-12-03T23:35:44.395Z,15.81
2022-12-03T23:38:11.750Z,15.81
2022-12-03T23:40:42.271Z,15.82
2022-12-03T23:43:11.940Z,15.81
2022-12-03T23:45:39.069Z,15.82
2022-12-03T23:48:06.143Z,15.82
2022-12-03T23:50:34.645Z,15.81
2022-12-03T23:53:01.708Z,15.82
2022-12-03T23:55:28.768Z,15.78
2022-12-03T23:57:55.842Z,15.79
